• Join FlightAware (Why Join?)
  • Login
  • US Flag 
12:55PM EDT


 

Airport Tracker/Info


-or-


 

Live Flight TrackerFlight Track Log ✈ SWA470 ✈ 19-Oct-2013 ✈ KSAN - KTUS

Flight Track Log - Related Links

Times and Time Zones

All times are in EDT time to prevent confusion due to time zone crossing. See the SWA470 flight status page for this flight to view local times or setup timezone preferences in your user account.

Time Position Orientation Groundspeed Altitude Reporting Facility
EDT Latitude Longitude Course Direction KTS MPH feet Rate Location/Type
05:25PM 32.7414 -117.2147 284° West 126 145 1,400  Level Los Angeles Center
05:26PM 32.7550 -117.2800 284° West 203 234 3,300 2,220 Climbing Los Angeles Center
05:27PM 32.7192 -117.3303 230° Southwest 244 281 6,000 2,700 Climbing Los Angeles Center
05:28PM 32.6669 -117.2822 142° Southeast 242 278 8,900 2,400 Climbing Los Angeles Center
05:29PM 32.6411 -117.1964 110° East 283 326 11,000 2,340 Climbing Los Angeles Center
05:30PM 32.6236 -117.0681 99° East 326 375 13,800 2,760 Climbing Los Angeles Center
05:31PM 32.6103 -116.9522 98° East 347 399 16,700 2,400 Climbing Los Angeles Center
05:32PM 32.6256 -116.8347 81° East 360 414 18,800 2,160 Climbing Los Angeles Center
05:33PM 32.6367 -116.7114 84° East 371 427 21,200 2,100 Climbing Los Angeles Center
05:34PM 32.6497 -116.5819 83° East 393 452 23,200 1,980 Climbing Los Angeles Center
05:35PM 32.6631 -116.4239 84° East 408 470 25,300 1,740 Climbing Los Angeles Center
05:36PM 32.6767 -116.2858 83° East 428 493 26,900 1,500 Climbing Los Angeles Center
05:37PM 32.6906 -116.1461 83° East 435 501 28,400 1,020 Climbing Los Angeles Center
05:38PM 32.7036 -116.0025 84° East 440 506 29,000 540 Climbing Los Angeles Center
05:39PM 32.7164 -115.8553 84° East 447 514 29,600 900 Climbing Los Angeles Center
05:40PM 32.7331 -115.6783 84° East 450 518 30,900 660 Climbing Los Angeles Center
05:42PM 32.7453 -115.5303 84° East 452 520 31,000  Climbing Los Angeles Center
05:43PM 32.7581 -115.3819 84° East 453 521 31,000 480 Level Los Angeles Center
05:44PM 32.7719 -115.2328 84° East 453 521 32,000 1,140 Climbing Los Angeles Center
05:45PM 32.7867 -115.0828 83° East 457 526 33,400 1,320 Climbing Los Angeles Center
05:46PM 32.7992 -114.9353 84° East 451 519 34,800 1,380 Climbing Los Angeles Center
05:47PM 32.8122 -114.7578 85° East 450 518 36,300 1,020 Climbing Los Angeles Center
05:48PM 32.8247 -114.6103 84° East 449 517 37,000 300 Climbing Los Angeles Center
05:49PM 32.8375 -114.4633 84° East 448 516 37,000  Level Los Angeles Center
05:50PM 32.8464 -114.3172 86° East 445 512 37,000  Level Los Angeles Center
05:51PM 32.8583 -114.1711 84° East 444 511 37,000  Level Los Angeles Center
05:52PM 32.8703 -114.0250 84° East 440 506 37,000  Level Los Angeles Center
05:53PM 32.8769 -113.8772 87° East 443 510 37,000  Level Los Angeles Center
05:54PM 32.8856 -113.7003 87° East 444 511 37,000  Level Los Angeles Center
05:55PM 32.8964 -113.5772 84° East 448 516 37,000  Level Albuquerque Center
05:56PM 32.9075 -113.4264 85° East 452 520 37,000  Level Albuquerque Center
05:57PM 32.9183 -113.2761 85° East 455 524 37,000  Level Albuquerque Center
05:58PM 32.9278 -113.1253 86° East 455 524 37,000 -360 Level Albuquerque Center
05:59PM 32.9375 -112.9742 86° East 456 525 36,300 -840 Descending Albuquerque Center
06:00PM 32.9478 -112.8219 85° East 458 527 35,300 -1,020 Descending Albuquerque Center
06:01PM 32.9500 -112.6733 89° East 452 520 34,300 -1,320 Descending Albuquerque Center
06:02PM 32.9025 -112.5353 112° Southeast 450 518 32,600 -2,040 Descending Albuquerque Center
06:03PM 32.8519 -112.4011 114° Southeast 446 513 30,200 -2,400 Descending Albuquerque Center
06:04PM 32.8019 -112.2733 115° Southeast 434 499 27,700 -2,580 Descending Albuquerque Center
06:05PM 32.7500 -112.1361 114° Southeast 418 481 25,000 -2,580 Descending Albuquerque Center
06:06PM 32.7028 -112.0150 115° Southeast 411 473 22,500 -2,280 Descending Albuquerque Center
06:07PM 32.6567 -111.8969 115° Southeast 400 460 20,400 -2,100 Descending Albuquerque Center
06:08PM 32.6128 -111.7875 115° Southeast 382 440 18,300 -2,280 Descending Albuquerque Center
06:08PM 32.5886 -111.7333 118° Southeast 374 430 17,400 -2,280 Descending Albuquerque Center
06:09PM 32.5631 -111.6581 112° Southeast 365 420 16,000 -1,920 Descending Albuquerque Center
06:09PM 32.5558 -111.6508 140° Southeast 362 417 15,900 -2,100 Descending Albuquerque Center
06:10PM 32.5072 -111.5628 123° Southeast 352 405 13,900 -2,160 Descending Albuquerque Center
06:10PM 32.5114 -111.5614 16° North 354 407 13,900 -2,280 Level Albuquerque Center
06:11PM 32.4539 -111.4633 125° Southeast 354 407 11,600 -2,280 Descending Albuquerque Center
06:11PM 32.4561 -111.4653 324° Northwest 353 406 11,600 -1,500 Level Albuquerque Center
06:12PM 32.4019 -111.3711 124° Southeast 341 392 10,100 -1,500 Descending Albuquerque Center
06:12PM 32.4056 -111.3719 349° North 344 396 10,100 -1,140 Level Albuquerque Center
06:13PM 32.3569 -111.2925 126° Southeast 296 341 9,000 -1,080 Descending Albuquerque Center
06:13PM 32.3597 -111.2919 10° North 309 356 9,000 -660 Level Albuquerque Center
06:14PM 32.3169 -111.2167 124° Southeast 284 327 8,300 -780 Descending Albuquerque Center
06:14PM 32.3081 -111.2047 131° Southeast 276 318 8,200 -1,380 Descending Albuquerque Center
06:15PM 32.2692 -111.1369 124° Southeast 255 293 6,900 -1,200 Descending Albuquerque Center
06:16PM 32.2397 -111.0769 120° Southeast 259 298 5,800 -1,200 Descending Albuquerque Center
06:17PM 32.1844 -111.0211 139° Southeast 220 253 4,500 -1,260 Descending Albuquerque Center
06:17PM 32.1872 -111.0097 74° East 249 287 4,500 -1,140 Level Albuquerque Center
06:18PM 32.1508 -110.9800 145° Southeast 175 201 3,400 -420 Descending Albuquerque Center
06:18PM 32.1533 -110.9678 76° East 234 269 4,100 21,000 Climbing Albuquerque Center
06:20PM 32.1161 -110.9410 128° Southeast  Level Estimated
06:27PM 32.1161 -110.9410 128° Southeast  Level Estimated